sensor_id;sensor_type;location;lat;lon;timestamp;P1;durP1;ratioP1;P2;durP2;ratioP2
66523;SDS011;53350;52.210;5.160;2022-10-31T00:00:26;10.50;;;4.97;;
66523;SDS011;53350;52.210;5.160;2022-10-31T00:02:52;13.07;;;5.07;;
66523;SDS011;53350;52.210;5.160;2022-10-31T00:05:20;7.85;;;4.13;;
66523;SDS011;53350;52.210;5.160;2022-10-31T00:07:47;11.60;;;5.10;;
66523;SDS011;53350;52.210;5.160;2022-10-31T00:10:13;10.10;;;4.97;;
66523;SDS011;53350;52.210;5.160;2022-10-31T00:12:39;11.15;;;4.95;;
66523;SDS011;53350;52.210;5.160;2022-10-31T00:15:06;9.23;;;4.97;;
66523;SDS011;53350;52.210;5.160;2022-10-31T00:17:34;12.15;;;5.07;;
66523;SDS011;53350;52.210;5.160;2022-10-31T00:20:01;13.20;;;5.50;;
66523;SDS011;53350;52.210;5.160;2022-10-31T00:22:28;10.15;;;4.60;;
66523;SDS011;53350;52.210;5.160;2022-10-31T00:24:55;10.10;;;4.65;;
66523;SDS011;53350;52.210;5.160;2022-10-31T00:27:21;9.70;;;4.55;;
66523;SDS011;53350;52.210;5.160;2022-10-31T00:29:48;12.02;;;5.05;;
66523;SDS011;53350;52.210;5.160;2022-10-31T00:32:14;14.88;;;4.78;;
66523;SDS011;53350;52.210;5.160;2022-10-31T00:34:40;13.02;;;4.97;;
66523;SDS011;53350;52.210;5.160;2022-10-31T00:37:07;12.95;;;4.82;;
66523;SDS011;53350;52.210;5.160;2022-10-31T00:39:35;9.48;;;4.22;;
66523;SDS011;53350;52.210;5.160;2022-10-31T00:42:01;12.05;;;4.82;;
66523;SDS011;53350;52.210;5.160;2022-10-31T00:44:27;11.00;;;4.55;;
66523;SDS011;53350;52.210;5.160;2022-10-31T00:46:54;8.60;;;4.68;;
66523;SDS011;53350;52.210;5.160;2022-10-31T00:49:20;10.20;;;4.60;;
66523;SDS011;53350;52.210;5.160;2022-10-31T00:51:47;10.35;;;4.78;;
66523;SDS011;53350;52.210;5.160;2022-10-31T00:54:13;10.32;;;4.43;;
66523;SDS011;53350;52.210;5.160;2022-10-31T00:56:41;9.38;;;4.38;;
66523;SDS011;53350;52.210;5.160;2022-10-31T00:59:07;12.93;;;4.00;;
66523;SDS011;53350;52.210;5.160;2022-10-31T01:01:33;9.45;;;4.05;;
66523;SDS011;53350;52.210;5.160;2022-10-31T01:04:00;9.38;;;4.45;;
66523;SDS011;53350;52.210;5.160;2022-10-31T01:06:26;11.80;;;4.75;;
66523;SDS011;53350;52.210;5.160;2022-10-31T01:08:53;13.35;;;4.78;;
66523;SDS011;53350;52.210;5.160;2022-10-31T01:11:20;10.18;;;5.10;;
66523;SDS011;53350;52.210;5.160;2022-10-31T01:16:17;10.43;;;4.82;;
66523;SDS011;53350;52.210;5.160;2022-10-31T01:18:45;8.88;;;4.35;;
66523;SDS011;53350;52.210;5.160;2022-10-31T01:21:13;11.95;;;5.78;;
66523;SDS011;53350;52.210;5.160;2022-10-31T01:23:40;14.95;;;5.63;;
66523;SDS011;53350;52.210;5.160;2022-10-31T01:26:08;13.05;;;5.50;;
66523;SDS011;53350;52.210;5.160;2022-10-31T01:28:37;10.77;;;5.55;;
66523;SDS011;53350;52.210;5.160;2022-10-31T01:31:07;10.57;;;5.57;;
66523;SDS011;53350;52.210;5.160;2022-10-31T01:33:35;12.40;;;5.50;;
66523;SDS011;53350;52.210;5.160;2022-10-31T01:36:10;13.50;;;5.53;;
66523;SDS011;53350;52.210;5.160;2022-10-31T01:38:37;11.82;;;5.93;;
66523;SDS011;53350;52.210;5.160;2022-10-31T01:41:04;9.70;;;5.47;;
66523;SDS011;53350;52.210;5.160;2022-10-31T01:43:41;11.50;;;5.38;;
66523;SDS011;53350;52.210;5.160;2022-10-31T01:46:14;11.73;;;5.32;;
66523;SDS011;53350;52.210;5.160;2022-10-31T01:48:42;10.57;;;5.28;;
66523;SDS011;53350;52.210;5.160;2022-10-31T01:51:09;10.10;;;5.13;;
66523;SDS011;53350;52.210;5.160;2022-10-31T01:53:38;12.13;;;4.93;;
66523;SDS011;53350;52.210;5.160;2022-10-31T01:56:06;10.13;;;5.07;;
66523;SDS011;53350;52.210;5.160;2022-10-31T01:58:33;10.45;;;5.00;;
66523;SDS011;53350;52.210;5.160;2022-10-31T02:01:00;9.73;;;5.07;;
66523;SDS011;53350;52.210;5.160;2022-10-31T02:03:29;11.00;;;5.93;;
66523;SDS011;53350;52.210;5.160;2022-10-31T02:05:56;10.98;;;5.18;;
66523;SDS011;53350;52.210;5.160;2022-10-31T02:08:25;9.70;;;5.00;;
66523;SDS011;53350;52.210;5.160;2022-10-31T02:10:54;12.45;;;4.88;;
66523;SDS011;53350;52.210;5.160;2022-10-31T02:13:21;12.52;;;5.43;;
66523;SDS011;53350;52.210;5.160;2022-10-31T02:15:49;13.55;;;5.47;;
66523;SDS011;53350;52.210;5.160;2022-10-31T02:18:17;10.65;;;5.32;;
66523;SDS011;53350;52.210;5.160;2022-10-31T02:20:48;12.20;;;4.93;;
66523;SDS011;53350;52.210;5.160;2022-10-31T02:23:37;11.60;;;5.55;;
66523;SDS011;53350;52.210;5.160;2022-10-31T02:26:34;11.88;;;5.47;;
66523;SDS011;53350;52.210;5.160;2022-10-31T02:32:26;9.30;;;4.90;;
66523;SDS011;53350;52.210;5.160;2022-10-31T02:34:57;10.43;;;5.13;;
66523;SDS011;53350;52.210;5.160;2022-10-31T02:37:29;12.00;;;5.63;;
66523;SDS011;53350;52.210;5.160;2022-10-31T02:40:04;10.10;;;5.53;;
66523;SDS011;53350;52.210;5.160;2022-10-31T02:42:39;14.00;;;5.43;;
66523;SDS011;53350;52.210;5.160;2022-10-31T02:45:17;10.57;;;5.07;;
66523;SDS011;53350;52.210;5.160;2022-10-31T02:47:52;10.50;;;4.55;;
66523;SDS011;53350;52.210;5.160;2022-10-31T02:50:21;10.02;;;5.00;;
66523;SDS011;53350;52.210;5.160;2022-10-31T02:52:52;8.88;;;5.38;;
66523;SDS011;53350;52.210;5.160;2022-10-31T02:58:18;13.57;;;5.65;;
66523;SDS011;53350;52.210;5.160;2022-10-31T03:00:49;10.02;;;5.18;;
66523;SDS011;53350;52.210;5.160;2022-10-31T03:03:35;10.90;;;5.05;;
66523;SDS011;53350;52.210;5.160;2022-10-31T03:06:08;11.40;;;5.88;;
66523;SDS011;53350;52.210;5.160;2022-10-31T03:08:41;10.88;;;5.72;;
66523;SDS011;53350;52.210;5.160;2022-10-31T03:11:14;9.25;;;5.53;;
66523;SDS011;53350;52.210;5.160;2022-10-31T03:13:45;11.18;;;5.50;;
66523;SDS011;53350;52.210;5.160;2022-10-31T03:16:16;11.80;;;5.85;;
66523;SDS011;53350;52.210;5.160;2022-10-31T03:18:50;10.30;;;5.25;;
66523;SDS011;53350;52.210;5.160;2022-10-31T03:21:22;13.32;;;5.43;;
66523;SDS011;53350;52.210;5.160;2022-10-31T03:23:53;10.90;;;5.75;;
66523;SDS011;53350;52.210;5.160;2022-10-31T03:26:22;13.10;;;5.43;;
66523;SDS011;53350;52.210;5.160;2022-10-31T03:28:51;13.10;;;5.63;;
66523;SDS011;53350;52.210;5.160;2022-10-31T03:31:21;11.63;;;6.13;;
66523;SDS011;53350;52.210;5.160;2022-10-31T03:33:54;12.30;;;6.68;;
66523;SDS011;53350;52.210;5.160;2022-10-31T03:36:24;12.18;;;6.40;;
66523;SDS011;53350;52.210;5.160;2022-10-31T03:38:54;17.08;;;7.57;;
66523;SDS011;53350;52.210;5.160;2022-10-31T03:41:23;15.65;;;8.60;;
66523;SDS011;53350;52.210;5.160;2022-10-31T03:43:55;19.98;;;10.20;;
66523;SDS011;53350;52.210;5.160;2022-10-31T03:46:26;18.50;;;8.40;;
66523;SDS011;53350;52.210;5.160;2022-10-31T03:48:54;15.48;;;9.18;;
66523;SDS011;53350;52.210;5.160;2022-10-31T03:51:22;14.20;;;9.00;;
66523;SDS011;53350;52.210;5.160;2022-10-31T03:53:54;19.42;;;9.98;;
66523;SDS011;53350;52.210;5.160;2022-10-31T03:56:26;18.10;;;10.13;;
66523;SDS011;53350;52.210;5.160;2022-10-31T03:59:00;24.55;;;11.07;;
66523;SDS011;53350;52.210;5.160;2022-10-31T04:01:32;17.27;;;11.13;;
66523;SDS011;53350;52.210;5.160;2022-10-31T04:04:04;16.35;;;10.48;;
66523;SDS011;53350;52.210;5.160;2022-10-31T04:06:32;20.08;;;12.30;;
66523;SDS011;53350;52.210;5.160;2022-10-31T04:09:03;22.85;;;12.55;;
66523;SDS011;53350;52.210;5.160;2022-10-31T04:11:32;19.05;;;12.45;;
66523;SDS011;53350;52.210;5.160;2022-10-31T04:14:02;21.52;;;11.60;;
66523;SDS011;53350;52.210;5.160;2022-10-31T04:16:31;26.42;;;13.48;;
66523;SDS011;53350;52.210;5.160;2022-10-31T04:18:57;21.10;;;12.48;;
66523;SDS011;53350;52.210;5.160;2022-10-31T04:21:29;22.42;;;12.43;;
66523;SDS011;53350;52.210;5.160;2022-10-31T04:23:56;23.92;;;12.85;;
66523;SDS011;53350;52.210;5.160;2022-10-31T04:26:23;23.08;;;13.43;;
66523;SDS011;53350;52.210;5.160;2022-10-31T04:28:50;25.80;;;13.40;;
66523;SDS011;53350;52.210;5.160;2022-10-31T04:31:16;25.13;;;14.20;;
66523;SDS011;53350;52.210;5.160;2022-10-31T04:33:42;22.90;;;13.43;;
66523;SDS011;53350;52.210;5.160;2022-10-31T04:36:09;22.70;;;13.65;;
66523;SDS011;53350;52.210;5.160;2022-10-31T04:38:37;24.80;;;14.88;;
66523;SDS011;53350;52.210;5.160;2022-10-31T04:41:03;22.15;;;13.48;;
66523;SDS011;53350;52.210;5.160;2022-10-31T04:43:30;19.88;;;12.73;;
66523;SDS011;53350;52.210;5.160;2022-10-31T04:45:56;21.58;;;13.35;;
66523;SDS011;53350;52.210;5.160;2022-10-31T04:48:22;22.63;;;12.70;;
66523;SDS011;53350;52.210;5.160;2022-10-31T04:50:49;21.05;;;13.23;;
66523;SDS011;53350;52.210;5.160;2022-10-31T04:53:15;20.92;;;13.73;;
66523;SDS011;53350;52.210;5.160;2022-10-31T04:55:43;26.52;;;14.70;;
66523;SDS011;53350;52.210;5.160;2022-10-31T04:58:09;20.38;;;14.05;;
66523;SDS011;53350;52.210;5.160;2022-10-31T05:00:36;24.25;;;13.82;;
66523;SDS011;53350;52.210;5.160;2022-10-31T05:03:02;18.55;;;12.80;;
66523;SDS011;53350;52.210;5.160;2022-10-31T05:05:30;21.50;;;14.57;;
66523;SDS011;53350;52.210;5.160;2022-10-31T05:07:57;20.65;;;13.77;;
66523;SDS011;53350;52.210;5.160;2022-10-31T05:10:24;23.67;;;14.48;;
66523;SDS011;53350;52.210;5.160;2022-10-31T05:12:54;22.10;;;14.63;;
66523;SDS011;53350;52.210;5.160;2022-10-31T05:15:22;22.95;;;14.82;;
66523;SDS011;53350;52.210;5.160;2022-10-31T05:17:50;28.83;;;14.52;;
66523;SDS011;53350;52.210;5.160;2022-10-31T05:20:17;22.63;;;13.27;;
66523;SDS011;53350;52.210;5.160;2022-10-31T05:22:45;25.73;;;14.32;;
66523;SDS011;53350;52.210;5.160;2022-10-31T05:25:13;20.20;;;13.88;;
66523;SDS011;53350;52.210;5.160;2022-10-31T05:27:40;21.42;;;13.95;;
66523;SDS011;53350;52.210;5.160;2022-10-31T05:30:09;26.45;;;15.38;;
66523;SDS011;53350;52.210;5.160;2022-10-31T05:32:37;24.23;;;15.38;;
66523;SDS011;53350;52.210;5.160;2022-10-31T05:35:05;23.90;;;15.00;;
66523;SDS011;53350;52.210;5.160;2022-10-31T05:37:33;26.77;;;15.13;;
66523;SDS011;53350;52.210;5.160;2022-10-31T05:39:59;25.27;;;15.38;;
66523;SDS011;53350;52.210;5.160;2022-10-31T05:42:26;23.83;;;15.50;;
66523;SDS011;53350;52.210;5.160;2022-10-31T05:44:52;33.22;;;15.57;;
66523;SDS011;53350;52.210;5.160;2022-10-31T05:47:20;23.90;;;14.35;;
66523;SDS011;53350;52.210;5.160;2022-10-31T05:49:46;23.48;;;14.57;;
66523;SDS011;53350;52.210;5.160;2022-10-31T05:52:13;23.15;;;14.20;;
66523;SDS011;53350;52.210;5.160;2022-10-31T05:54:39;20.98;;;13.50;;
66523;SDS011;53350;52.210;5.160;2022-10-31T05:57:06;25.23;;;13.57;;
66523;SDS011;53350;52.210;5.160;2022-10-31T05:59:32;22.55;;;14.35;;
66523;SDS011;53350;52.210;5.160;2022-10-31T06:01:59;29.35;;;15.15;;
66523;SDS011;53350;52.210;5.160;2022-10-31T06:04:27;27.95;;;15.90;;
66523;SDS011;53350;52.210;5.160;2022-10-31T06:06:54;27.92;;;16.77;;
66523;SDS011;53350;52.210;5.160;2022-10-31T06:09:20;27.13;;;16.55;;
66523;SDS011;53350;52.210;5.160;2022-10-31T06:11:47;23.65;;;15.45;;
66523;SDS011;53350;52.210;5.160;2022-10-31T06:14:13;24.50;;;16.27;;
66523;SDS011;53350;52.210;5.160;2022-10-31T06:16:39;27.02;;;16.13;;
66523;SDS011;53350;52.210;5.160;2022-10-31T06:19:06;26.85;;;16.30;;
66523;SDS011;53350;52.210;5.160;2022-10-31T06:21:34;28.63;;;17.33;;
66523;SDS011;53350;52.210;5.160;2022-10-31T06:24:00;25.60;;;16.08;;
66523;SDS011;53350;52.210;5.160;2022-10-31T06:26:26;27.20;;;15.45;;
66523;SDS011;53350;52.210;5.160;2022-10-31T06:28:53;33.13;;;17.38;;
66523;SDS011;53350;52.210;5.160;2022-10-31T06:31:19;28.38;;;16.58;;
66523;SDS011;53350;52.210;5.160;2022-10-31T06:33:46;24.20;;;15.75;;
66523;SDS011;53350;52.210;5.160;2022-10-31T06:36:12;26.92;;;16.42;;
66523;SDS011;53350;52.210;5.160;2022-10-31T06:38:40;28.70;;;17.13;;
66523;SDS011;53350;52.210;5.160;2022-10-31T06:41:06;27.13;;;16.25;;
66523;SDS011;53350;52.210;5.160;2022-10-31T06:43:33;27.98;;;16.52;;
66523;SDS011;53350;52.210;5.160;2022-10-31T06:46:01;31.55;;;17.58;;
66523;SDS011;53350;52.210;5.160;2022-10-31T06:48:28;27.70;;;16.85;;
66523;SDS011;53350;52.210;5.160;2022-10-31T06:50:56;30.48;;;17.35;;
66523;SDS011;53350;52.210;5.160;2022-10-31T06:53:23;29.33;;;17.75;;
66523;SDS011;53350;52.210;5.160;2022-10-31T06:55:51;29.92;;;18.20;;
66523;SDS011;53350;52.210;5.160;2022-10-31T06:58:17;29.15;;;17.73;;
66523;SDS011;53350;52.210;5.160;2022-10-31T07:00:44;28.33;;;17.63;;
66523;SDS011;53350;52.210;5.160;2022-10-31T07:03:11;36.17;;;19.48;;
66523;SDS011;53350;52.210;5.160;2022-10-31T07:05:38;32.22;;;19.98;;
66523;SDS011;53350;52.210;5.160;2022-10-31T07:08:06;29.02;;;18.05;;
66523;SDS011;53350;52.210;5.160;2022-10-31T07:10:35;31.65;;;18.63;;
66523;SDS011;53350;52.210;5.160;2022-10-31T07:13:04;29.52;;;18.63;;
66523;SDS011;53350;52.210;5.160;2022-10-31T07:15:33;30.25;;;18.92;;
66523;SDS011;53350;52.210;5.160;2022-10-31T07:18:01;33.13;;;19.55;;
66523;SDS011;53350;52.210;5.160;2022-10-31T07:20:28;30.60;;;18.83;;
66523;SDS011;53350;52.210;5.160;2022-10-31T07:22:54;35.55;;;20.02;;
66523;SDS011;53350;52.210;5.160;2022-10-31T07:25:21;31.42;;;18.80;;
66523;SDS011;53350;52.210;5.160;2022-10-31T07:27:47;35.67;;;20.08;;
66523;SDS011;53350;52.210;5.160;2022-10-31T07:30:16;33.05;;;19.10;;
66523;SDS011;53350;52.210;5.160;2022-10-31T07:32:43;33.60;;;19.00;;
66523;SDS011;53350;52.210;5.160;2022-10-31T07:35:12;29.77;;;20.52;;
66523;SDS011;53350;52.210;5.160;2022-10-31T07:37:39;30.45;;;18.45;;
66523;SDS011;53350;52.210;5.160;2022-10-31T07:40:07;30.40;;;19.75;;
66523;SDS011;53350;52.210;5.160;2022-10-31T07:42:34;30.77;;;19.13;;
66523;SDS011;53350;52.210;5.160;2022-10-31T07:45:01;29.10;;;18.77;;
66523;SDS011;53350;52.210;5.160;2022-10-31T07:47:29;29.55;;;19.48;;
66523;SDS011;53350;52.210;5.160;2022-10-31T07:49:56;33.63;;;20.00;;
66523;SDS011;53350;52.210;5.160;2022-10-31T07:52:22;32.65;;;19.83;;
66523;SDS011;53350;52.210;5.160;2022-10-31T07:54:50;35.22;;;20.27;;
66523;SDS011;53350;52.210;5.160;2022-10-31T07:57:16;30.40;;;19.75;;
66523;SDS011;53350;52.210;5.160;2022-10-31T07:59:43;37.28;;;20.90;;
66523;SDS011;53350;52.210;5.160;2022-10-31T08:02:09;34.45;;;19.88;;
66523;SDS011;53350;52.210;5.160;2022-10-31T08:04:37;32.42;;;19.60;;
66523;SDS011;53350;52.210;5.160;2022-10-31T08:07:03;30.98;;;19.25;;
66523;SDS011;53350;52.210;5.160;2022-10-31T08:09:30;31.80;;;19.65;;
66523;SDS011;53350;52.210;5.160;2022-10-31T08:11:56;31.13;;;19.90;;
66523;SDS011;53350;52.210;5.160;2022-10-31T08:14:22;28.13;;;18.95;;
66523;SDS011;53350;52.210;5.160;2022-10-31T08:16:49;29.33;;;19.60;;
66523;SDS011;53350;52.210;5.160;2022-10-31T08:19:15;32.50;;;19.88;;
66523;SDS011;53350;52.210;5.160;2022-10-31T08:21:43;29.48;;;19.05;;
66523;SDS011;53350;52.210;5.160;2022-10-31T08:24:10;33.10;;;20.00;;
66523;SDS011;53350;52.210;5.160;2022-10-31T08:26:36;31.88;;;19.00;;
66523;SDS011;53350;52.210;5.160;2022-10-31T08:29:03;31.05;;;19.10;;
66523;SDS011;53350;52.210;5.160;2022-10-31T08:31:30;30.30;;;19.10;;
66523;SDS011;53350;52.210;5.160;2022-10-31T08:33:56;32.42;;;20.92;;
66523;SDS011;53350;52.210;5.160;2022-10-31T08:36:23;28.65;;;18.88;;
66523;SDS011;53350;52.210;5.160;2022-10-31T08:38:50;27.00;;;18.38;;
66523;SDS011;53350;52.210;5.160;2022-10-31T08:41:17;29.98;;;19.73;;
66523;SDS011;53350;52.210;5.160;2022-10-31T08:43:43;30.45;;;18.73;;
66523;SDS011;53350;52.210;5.160;2022-10-31T08:46:10;32.38;;;18.02;;
66523;SDS011;53350;52.210;5.160;2022-10-31T08:48:36;29.45;;;17.73;;
66523;SDS011;53350;52.210;5.160;2022-10-31T08:51:03;29.40;;;18.13;;
66523;SDS011;53350;52.210;5.160;2022-10-31T08:53:29;29.60;;;18.30;;
66523;SDS011;53350;52.210;5.160;2022-10-31T08:55:57;30.45;;;19.27;;
66523;SDS011;53350;52.210;5.160;2022-10-31T08:58:24;27.80;;;18.98;;
66523;SDS011;53350;52.210;5.160;2022-10-31T09:00:51;28.65;;;18.38;;
66523;SDS011;53350;52.210;5.160;2022-10-31T09:03:19;33.15;;;19.50;;
66523;SDS011;53350;52.210;5.160;2022-10-31T09:05:47;32.72;;;19.77;;
66523;SDS011;53350;52.210;5.160;2022-10-31T09:08:15;30.70;;;18.73;;
66523;SDS011;53350;52.210;5.160;2022-10-31T09:10:42;33.92;;;20.20;;
66523;SDS011;53350;52.210;5.160;2022-10-31T09:13:12;30.48;;;20.77;;
66523;SDS011;53350;52.210;5.160;2022-10-31T09:15:40;32.50;;;21.40;;
66523;SDS011;53350;52.210;5.160;2022-10-31T09:18:08;34.60;;;21.13;;
66523;SDS011;53350;52.210;5.160;2022-10-31T09:20:36;35.08;;;20.83;;
66523;SDS011;53350;52.210;5.160;2022-10-31T09:25:32;34.72;;;21.67;;
66523;SDS011;53350;52.210;5.160;2022-10-31T09:28:00;35.13;;;21.48;;
66523;SDS011;53350;52.210;5.160;2022-10-31T09:30:29;41.30;;;23.67;;
66523;SDS011;53350;52.210;5.160;2022-10-31T09:32:58;43.45;;;23.38;;
66523;SDS011;53350;52.210;5.160;2022-10-31T09:35:25;37.75;;;24.48;;
66523;SDS011;53350;52.210;5.160;2022-10-31T09:37:55;39.00;;;23.65;;
66523;SDS011;53350;52.210;5.160;2022-10-31T09:40:23;40.42;;;23.63;;
66523;SDS011;53350;52.210;5.160;2022-10-31T09:42:55;38.50;;;23.75;;
66523;SDS011;53350;52.210;5.160;2022-10-31T09:45:33;41.60;;;23.15;;
66523;SDS011;53350;52.210;5.160;2022-10-31T09:48:09;38.28;;;22.90;;
66523;SDS011;53350;52.210;5.160;2022-10-31T09:50:48;41.15;;;23.33;;
66523;SDS011;53350;52.210;5.160;2022-10-31T09:53:22;40.03;;;22.75;;
66523;SDS011;53350;52.210;5.160;2022-10-31T09:55:53;37.67;;;22.63;;
66523;SDS011;53350;52.210;5.160;2022-10-31T09:58:23;36.55;;;22.33;;
66523;SDS011;53350;52.210;5.160;2022-10-31T10:00:52;36.53;;;21.52;;
66523;SDS011;53350;52.210;5.160;2022-10-31T10:03:26;39.95;;;21.42;;
66523;SDS011;53350;52.210;5.160;2022-10-31T10:05:59;31.88;;;20.42;;
66523;SDS011;53350;52.210;5.160;2022-10-31T10:08:32;36.22;;;20.73;;
66523;SDS011;53350;52.210;5.160;2022-10-31T10:11:05;37.15;;;21.73;;
66523;SDS011;53350;52.210;5.160;2022-10-31T10:13:50;31.65;;;20.27;;
66523;SDS011;53350;52.210;5.160;2022-10-31T10:16:36;31.00;;;18.83;;
66523;SDS011;53350;52.210;5.160;2022-10-31T10:19:15;33.20;;;18.92;;
66523;SDS011;53350;52.210;5.160;2022-10-31T10:21:51;30.55;;;19.33;;
66523;SDS011;53350;52.210;5.160;2022-10-31T10:24:27;37.03;;;17.85;;
66523;SDS011;53350;52.210;5.160;2022-10-31T10:27:05;27.83;;;17.80;;
66523;SDS011;53350;52.210;5.160;2022-10-31T10:29:43;27.40;;;16.98;;
66523;SDS011;53350;52.210;5.160;2022-10-31T10:32:17;27.38;;;17.45;;
66523;SDS011;53350;52.210;5.160;2022-10-31T10:34:49;29.25;;;15.55;;
66523;SDS011;53350;52.210;5.160;2022-10-31T10:37:20;22.88;;;14.00;;
66523;SDS011;53350;52.210;5.160;2022-10-31T10:39:53;21.52;;;12.75;;
66523;SDS011;53350;52.210;5.160;2022-10-31T10:42:26;18.30;;;11.52;;
66523;SDS011;53350;52.210;5.160;2022-10-31T10:45:13;20.02;;;12.25;;
66523;SDS011;53350;52.210;5.160;2022-10-31T10:48:06;20.52;;;11.80;;
66523;SDS011;53350;52.210;5.160;2022-10-31T10:50:39;17.88;;;11.30;;
66523;SDS011;53350;52.210;5.160;2022-10-31T10:53:15;18.45;;;9.35;;
66523;SDS011;53350;52.210;5.160;2022-10-31T10:55:58;20.25;;;10.52;;
66523;SDS011;53350;52.210;5.160;2022-10-31T10:58:28;19.35;;;10.13;;
66523;SDS011;53350;52.210;5.160;2022-10-31T11:00:54;20.75;;;9.93;;
66523;SDS011;53350;52.210;5.160;2022-10-31T11:03:22;19.52;;;9.60;;
66523;SDS011;53350;52.210;5.160;2022-10-31T11:05:50;18.90;;;10.50;;
66523;SDS011;53350;52.210;5.160;2022-10-31T11:08:27;18.95;;;10.38;;
66523;SDS011;53350;52.210;5.160;2022-10-31T11:10:56;18.48;;;9.55;;
66523;SDS011;53350;52.210;5.160;2022-10-31T11:13:27;18.08;;;10.30;;
66523;SDS011;53350;52.210;5.160;2022-10-31T11:15:59;19.45;;;11.18;;
66523;SDS011;53350;52.210;5.160;2022-10-31T11:18:29;19.52;;;10.93;;
66523;SDS011;53350;52.210;5.160;2022-10-31T11:20:57;19.65;;;11.82;;
66523;SDS011;53350;52.210;5.160;2022-10-31T11:23:26;18.48;;;11.80;;
66523;SDS011;53350;52.210;5.160;2022-10-31T11:25:54;18.63;;;11.07;;
66523;SDS011;53350;52.210;5.160;2022-10-31T11:28:22;17.88;;;11.45;;
66523;SDS011;53350;52.210;5.160;2022-10-31T11:30:50;19.98;;;11.48;;
66523;SDS011;53350;52.210;5.160;2022-10-31T11:33:20;18.08;;;11.68;;
66523;SDS011;53350;52.210;5.160;2022-10-31T11:35:53;20.13;;;12.40;;
66523;SDS011;53350;52.210;5.160;2022-10-31T11:38:23;20.88;;;12.52;;
66523;SDS011;53350;52.210;5.160;2022-10-31T11:40:57;26.23;;;12.80;;
66523;SDS011;53350;52.210;5.160;2022-10-31T11:43:26;25.88;;;13.00;;
66523;SDS011;53350;52.210;5.160;2022-10-31T11:45:52;23.55;;;12.57;;
66523;SDS011;53350;52.210;5.160;2022-10-31T11:48:19;23.33;;;12.90;;
66523;SDS011;53350;52.210;5.160;2022-10-31T11:50:49;24.42;;;12.80;;
66523;SDS011;53350;52.210;5.160;2022-10-31T11:53:26;24.85;;;13.48;;
66523;SDS011;53350;52.210;5.160;2022-10-31T11:56:01;20.58;;;13.45;;
66523;SDS011;53350;52.210;5.160;2022-10-31T11:58:30;23.45;;;13.52;;
66523;SDS011;53350;52.210;5.160;2022-10-31T12:00:57;22.77;;;14.85;;
66523;SDS011;53350;52.210;5.160;2022-10-31T12:03:32;27.75;;;14.88;;
66523;SDS011;53350;52.210;5.160;2022-10-31T12:06:12;21.67;;;15.07;;
66523;SDS011;53350;52.210;5.160;2022-10-31T12:08:45;26.02;;;15.25;;
66523;SDS011;53350;52.210;5.160;2022-10-31T12:11:16;24.85;;;14.82;;
66523;SDS011;53350;52.210;5.160;2022-10-31T12:14:01;28.80;;;16.50;;
66523;SDS011;53350;52.210;5.160;2022-10-31T12:16:41;29.40;;;16.48;;
66523;SDS011;53350;52.210;5.160;2022-10-31T12:19:17;30.40;;;17.10;;
66523;SDS011;53350;52.210;5.160;2022-10-31T12:21:52;27.85;;;17.80;;
66523;SDS011;53350;52.210;5.160;2022-10-31T12:24:35;32.72;;;17.60;;
66523;SDS011;53350;52.210;5.160;2022-10-31T12:27:17;29.98;;;18.35;;
66523;SDS011;53350;52.210;5.160;2022-10-31T12:30:01;29.17;;;19.02;;
66523;SDS011;53350;52.210;5.160;2022-10-31T12:32:38;32.78;;;19.25;;
66523;SDS011;53350;52.210;5.160;2022-10-31T12:35:25;27.73;;;18.52;;
66523;SDS011;53350;52.210;5.160;2022-10-31T12:40:53;35.03;;;19.88;;
66523;SDS011;53350;52.210;5.160;2022-10-31T12:43:34;34.78;;;19.70;;
66523;SDS011;53350;52.210;5.160;2022-10-31T12:46:09;34.38;;;18.58;;
66523;SDS011;53350;52.210;5.160;2022-10-31T12:48:45;33.45;;;18.98;;
66523;SDS011;53350;52.210;5.160;2022-10-31T12:51:23;35.60;;;20.00;;
66523;SDS011;53350;52.210;5.160;2022-10-31T12:54:07;41.00;;;20.50;;
66523;SDS011;53350;52.210;5.160;2022-10-31T12:56:47;39.20;;;21.73;;
66523;SDS011;53350;52.210;5.160;2022-10-31T12:59:24;35.53;;;20.13;;
66523;SDS011;53350;52.210;5.160;2022-10-31T13:01:59;35.20;;;20.10;;
66523;SDS011;53350;52.210;5.160;2022-10-31T13:04:33;41.42;;;20.95;;
66523;SDS011;53350;52.210;5.160;2022-10-31T13:07:05;40.63;;;21.70;;
66523;SDS011;53350;52.210;5.160;2022-10-31T13:09:38;40.25;;;22.80;;
66523;SDS011;53350;52.210;5.160;2022-10-31T13:12:13;38.53;;;22.58;;
66523;SDS011;53350;52.210;5.160;2022-10-31T13:14:43;37.55;;;21.80;;
66523;SDS011;53350;52.210;5.160;2022-10-31T13:17:15;39.05;;;21.75;;
66523;SDS011;53350;52.210;5.160;2022-10-31T13:19:47;36.67;;;21.75;;
66523;SDS011;53350;52.210;5.160;2022-10-31T13:22:17;37.50;;;22.27;;
66523;SDS011;53350;52.210;5.160;2022-10-31T13:24:50;44.70;;;22.25;;
66523;SDS011;53350;52.210;5.160;2022-10-31T13:27:23;44.58;;;23.35;;
66523;SDS011;53350;52.210;5.160;2022-10-31T13:29:56;46.70;;;21.92;;
66523;SDS011;53350;52.210;5.160;2022-10-31T13:32:28;39.75;;;22.23;;
66523;SDS011;53350;52.210;5.160;2022-10-31T13:35:02;41.00;;;21.48;;
66523;SDS011;53350;52.210;5.160;2022-10-31T13:37:30;42.08;;;21.60;;
66523;SDS011;53350;52.210;5.160;2022-10-31T13:40:05;40.40;;;21.95;;
66523;SDS011;53350;52.210;5.160;2022-10-31T13:42:48;39.87;;;21.43;;
66523;SDS011;53350;52.210;5.160;2022-10-31T13:45:21;41.28;;;22.58;;
66523;SDS011;53350;52.210;5.160;2022-10-31T13:47:55;37.35;;;20.95;;
66523;SDS011;53350;52.210;5.160;2022-10-31T13:50:24;37.20;;;19.83;;
66523;SDS011;53350;52.210;5.160;2022-10-31T13:52:51;32.50;;;20.48;;
66523;SDS011;53350;52.210;5.160;2022-10-31T13:55:37;37.00;;;19.77;;
66523;SDS011;53350;52.210;5.160;2022-10-31T14:00:46;34.80;;;19.75;;
66523;SDS011;53350;52.210;5.160;2022-10-31T14:03:23;43.90;;;19.67;;
66523;SDS011;53350;52.210;5.160;2022-10-31T14:05:53;37.67;;;19.92;;
66523;SDS011;53350;52.210;5.160;2022-10-31T14:08:22;36.42;;;18.95;;
66523;SDS011;53350;52.210;5.160;2022-10-31T14:10:50;38.58;;;20.48;;
66523;SDS011;53350;52.210;5.160;2022-10-31T14:13:21;36.38;;;20.55;;
66523;SDS011;53350;52.210;5.160;2022-10-31T14:15:52;35.22;;;19.42;;
66523;SDS011;53350;52.210;5.160;2022-10-31T14:18:21;35.33;;;18.35;;
66523;SDS011;53350;52.210;5.160;2022-10-31T14:20:49;37.67;;;20.10;;
66523;SDS011;53350;52.210;5.160;2022-10-31T14:23:31;36.28;;;19.65;;
66523;SDS011;53350;52.210;5.160;2022-10-31T14:26:14;33.95;;;18.67;;
66523;SDS011;53350;52.210;5.160;2022-10-31T14:28:46;40.33;;;22.00;;
66523;SDS011;53350;52.210;5.160;2022-10-31T14:31:26;37.63;;;21.42;;
66523;SDS011;53350;52.210;5.160;2022-10-31T14:33:58;35.35;;;19.98;;
66523;SDS011;53350;52.210;5.160;2022-10-31T14:36:27;35.08;;;19.77;;
66523;SDS011;53350;52.210;5.160;2022-10-31T14:39:05;41.30;;;22.25;;
66523;SDS011;53350;52.210;5.160;2022-10-31T14:41:44;38.60;;;20.75;;
66523;SDS011;53350;52.210;5.160;2022-10-31T14:44:32;37.47;;;20.20;;
66523;SDS011;53350;52.210;5.160;2022-10-31T14:47:12;40.17;;;20.88;;
66523;SDS011;53350;52.210;5.160;2022-10-31T14:50:03;37.25;;;20.88;;
66523;SDS011;53350;52.210;5.160;2022-10-31T14:52:40;51.53;;;21.05;;
66523;SDS011;53350;52.210;5.160;2022-10-31T14:55:11;36.42;;;19.90;;
66523;SDS011;53350;52.210;5.160;2022-10-31T14:57:42;40.72;;;21.85;;
66523;SDS011;53350;52.210;5.160;2022-10-31T15:00:17;37.63;;;20.38;;